Kezdőlap
METAR-TAF:

METAR-TAF

Repülőterek :

Berlin, New Hampshire, Amerikai Egyesült Államok

földrajzi szélesség: 44-34-34N, földrajzi hosszúság: 071-10-43W, magasság: 353 m

Jelenlegi meteorológiai megfigyelések

A jelentés 34 perccel ezelõtt készült, 17:52 UTC
Különbözõ irányokból fújó szél 5 kt
Hőmérséklet 6°C
Páratartalom 52%
Légköri nyomás 1009 hPa
Látótávolság: 16.1 km
Borult 3400 lábon

METAR: KBML 011752Z AUTO VRB05KT 10SM OVC034 06/M03 A2980 RMK AO2 SLP103 T00561033 10056 21028 57019

Idő: 14:26 (18:26 UTC)


TAF: hiányzik

Meteorológiai megfigyelések és előrejelzések több, mint 4000 repülőtéren (METAR és TAF jelentéseket).

A térképen piros és sárga pontok jelzik az elérhető meteorológiai állomásokat.

Mozgassa az egeret a pont fölött, hogy megjelenjen az állomás neve.

Azután kattintson az időjárási megfigyelések és előrejelzések megtekintéséhez.

A térkép megváltoztatása: kattintson a fekete keresztel jelölt zöld gombra ráközelítéshez, a vonallal jelölt zöld gombra távolításhoz, vagy a zöld nyilakra a szomszédos térképek eléréséhez.


METAR-TAF: